createdAt,value
2018-06-19T00:01:05.578Z,2.60
2018-06-19T00:03:33.018Z,2.33
2018-06-19T00:06:00.458Z,2.52
2018-06-19T00:08:27.873Z,2.10
2018-06-19T00:10:55.367Z,2.45
2018-06-19T00:13:22.802Z,2.92
2018-06-19T00:15:50.259Z,2.60
2018-06-19T00:18:19.995Z,2.22
2018-06-19T00:20:47.446Z,2.22
2018-06-19T00:23:14.866Z,2.50
2018-06-19T00:25:42.281Z,2.30
2018-06-19T00:28:09.723Z,2.40
2018-06-19T00:30:37.141Z,2.37
2018-06-19T00:33:04.582Z,2.33
2018-06-19T00:35:31.998Z,2.58
2018-06-19T00:37:59.401Z,2.40
2018-06-19T00:40:26.971Z,2.17
2018-06-19T00:42:54.415Z,2.98
2018-06-19T00:45:21.837Z,2.83
2018-06-19T00:47:49.789Z,2.27
2018-06-19T00:50:17.216Z,2.55
2018-06-19T00:52:44.635Z,2.17
2018-06-19T00:55:12.050Z,2.65
2018-06-19T00:57:39.493Z,2.37
2018-06-19T01:00:06.918Z,2.50
2018-06-19T01:02:34.334Z,2.98
2018-06-19T01:05:01.744Z,2.50
2018-06-19T01:07:29.140Z,2.70
2018-06-19T01:09:56.578Z,2.40
2018-06-19T01:12:23.999Z,2.60
2018-06-19T01:14:51.434Z,2.75
2018-06-19T01:17:18.857Z,2.20
2018-06-19T01:19:46.278Z,3.35
2018-06-19T01:22:13.702Z,2.90
2018-06-19T01:24:41.164Z,2.77
2018-06-19T01:27:08.566Z,2.70
2018-06-19T01:29:36.031Z,2.85
2018-06-19T01:32:03.474Z,2.67
2018-06-19T01:34:30.891Z,3.05
2018-06-19T01:36:58.330Z,3.08
2018-06-19T01:39:25.740Z,2.80
2018-06-19T01:41:53.165Z,2.45
2018-06-19T01:44:20.584Z,2.77
2018-06-19T01:46:47.997Z,3.22
2018-06-19T01:49:15.410Z,2.85
2018-06-19T01:51:42.818Z,2.77
2018-06-19T01:54:10.237Z,2.83
2018-06-19T01:56:37.654Z,3.75
2018-06-19T01:59:06.217Z,2.80
2018-06-19T02:01:33.998Z,2.60
2018-06-19T02:04:01.830Z,2.70
2018-06-19T02:06:29.623Z,3.35
2018-06-19T02:08:57.786Z,3.15
2018-06-19T02:11:25.568Z,2.72
2018-06-19T02:13:53.329Z,3.35
2018-06-19T02:16:20.750Z,2.92
2018-06-19T02:18:48.166Z,2.50
2018-06-19T02:21:15.622Z,3.08
2018-06-19T02:23:43.077Z,2.60
2018-06-19T02:26:10.494Z,3.12
2018-06-19T02:28:37.918Z,2.90
2018-06-19T02:31:05.367Z,2.90
2018-06-19T02:33:32.800Z,2.72
2018-06-19T02:36:00.232Z,2.22
2018-06-19T02:38:27.713Z,2.65
2018-06-19T02:40:55.160Z,3.10
2018-06-19T02:43:22.588Z,2.50
2018-06-19T02:45:50.065Z,2.45
2018-06-19T02:48:17.478Z,2.45
2018-06-19T02:50:44.919Z,2.65
2018-06-19T02:53:12.354Z,2.80
2018-06-19T02:55:39.776Z,2.90
2018-06-19T02:58:07.217Z,2.55
2018-06-19T03:00:34.663Z,2.75
2018-06-19T03:03:02.110Z,2.52
2018-06-19T03:05:29.525Z,2.72
2018-06-19T03:07:56.977Z,1.98
2018-06-19T03:10:24.406Z,2.52
2018-06-19T03:12:52.207Z,2.27
2018-06-19T03:15:19.671Z,3.00
2018-06-19T03:17:47.104Z,2.25
2018-06-19T03:20:14.566Z,2.60
2018-06-19T03:22:42.004Z,3.05
2018-06-19T03:25:09.497Z,1.95
2018-06-19T03:27:36.938Z,2.62
2018-06-19T03:30:04.413Z,2.60
2018-06-19T03:32:31.838Z,2.95
2018-06-19T03:34:59.283Z,2.60
2018-06-19T03:37:26.715Z,2.87
2018-06-19T03:39:54.110Z,2.90
2018-06-19T03:42:21.655Z,2.60
2018-06-19T03:44:49.071Z,2.67
2018-06-19T03:47:16.494Z,2.85
2018-06-19T03:49:43.955Z,3.10
2018-06-19T03:52:11.364Z,2.90
2018-06-19T03:54:39.471Z,2.58
2018-06-19T03:57:07.070Z,3.15
2018-06-19T03:59:34.516Z,2.90
2018-06-19T04:02:01.975Z,3.10
2018-06-19T04:04:29.409Z,2.80
2018-06-19T04:06:56.822Z,3.72
2018-06-19T04:09:24.337Z,3.67
2018-06-19T04:11:51.750Z,3.72
2018-06-19T04:14:19.176Z,3.27
2018-06-19T04:16:46.619Z,2.90
2018-06-19T04:19:14.060Z,3.30
2018-06-19T04:21:41.482Z,3.12
2018-06-19T04:24:08.934Z,3.22
2018-06-19T04:26:37.223Z,3.60
2018-06-19T04:29:04.634Z,2.95
2018-06-19T04:31:32.073Z,2.98
2018-06-19T04:33:59.514Z,3.20
2018-06-19T04:36:26.966Z,3.37
2018-06-19T04:38:54.374Z,3.30
2018-06-19T04:41:21.791Z,3.10
2018-06-19T04:43:49.252Z,3.22
2018-06-19T04:46:16.696Z,3.27
2018-06-19T04:48:44.158Z,2.45
2018-06-19T04:51:11.589Z,3.45
2018-06-19T04:53:38.990Z,3.02
2018-06-19T04:56:06.416Z,2.58
2018-06-19T04:58:33.810Z,3.40
2018-06-19T05:01:01.252Z,2.50
2018-06-19T05:03:28.666Z,3.08
2018-06-19T05:05:56.093Z,2.92
2018-06-19T05:08:23.546Z,2.83
2018-06-19T05:10:50.974Z,3.00
2018-06-19T05:13:18.401Z,2.58
2018-06-19T05:15:45.830Z,2.95
2018-06-19T05:18:13.245Z,2.83
2018-06-19T05:20:40.666Z,2.30
2018-06-19T05:23:08.097Z,2.95
2018-06-19T05:25:35.535Z,2.77
2018-06-19T05:28:02.999Z,2.17
2018-06-19T05:30:30.452Z,3.25
2018-06-19T05:32:57.911Z,2.80
2018-06-19T05:35:25.304Z,2.90
2018-06-19T05:37:52.754Z,2.62
2018-06-19T05:40:20.174Z,2.30
2018-06-19T05:42:47.634Z,2.87
2018-06-19T05:45:15.053Z,2.60
2018-06-19T05:47:42.466Z,3.12
2018-06-19T05:50:09.863Z,2.45
2018-06-19T05:52:37.316Z,2.80
2018-06-19T05:55:04.853Z,2.55
2018-06-19T05:57:32.265Z,2.42
2018-06-19T05:59:59.706Z,2.98
2018-06-19T06:02:27.121Z,3.00
2018-06-19T06:04:54.662Z,2.50
2018-06-19T06:07:22.091Z,2.80
2018-06-19T06:09:49.654Z,2.72
2018-06-19T06:12:17.063Z,3.55
2018-06-19T06:14:44.649Z,3.12
2018-06-19T06:17:12.094Z,2.52
2018-06-19T06:19:39.543Z,3.37
2018-06-19T06:22:06.967Z,2.92
2018-06-19T06:24:34.338Z,3.00
2018-06-19T06:27:01.766Z,2.83
2018-06-19T06:29:29.173Z,2.77
2018-06-19T06:31:56.635Z,2.52
2018-06-19T06:34:24.084Z,2.52
2018-06-19T06:36:51.506Z,3.05
2018-06-19T06:39:18.962Z,2.60
2018-06-19T06:41:46.378Z,2.55
2018-06-19T06:44:13.837Z,2.40
2018-06-19T06:46:41.263Z,2.25
2018-06-19T06:49:08.695Z,2.92
2018-06-19T06:51:36.159Z,2.62
2018-06-19T06:54:03.584Z,2.20
2018-06-19T06:56:31.163Z,2.25
2018-06-19T06:58:58.627Z,1.87
2018-06-19T07:01:26.039Z,1.72
2018-06-19T07:03:53.474Z,2.47
2018-06-19T07:06:20.886Z,2.27
2018-06-19T07:08:48.308Z,2.17
2018-06-19T07:11:15.698Z,1.95
2018-06-19T07:13:43.130Z,2.17
2018-06-19T07:16:10.532Z,1.80
2018-06-19T07:18:37.960Z,1.50
2018-06-19T07:21:05.625Z,2.02
2018-06-19T07:23:33.049Z,1.70
2018-06-19T07:26:00.519Z,2.52
2018-06-19T07:28:27.943Z,1.40
2018-06-19T07:30:55.457Z,1.35
2018-06-19T07:33:22.987Z,1.57
2018-06-19T07:35:50.420Z,1.42
2018-06-19T07:38:17.875Z,1.72
2018-06-19T07:40:45.293Z,1.57
2018-06-19T07:43:12.687Z,1.57
2018-06-19T07:45:40.127Z,1.67
2018-06-19T07:48:07.602Z,1.15
2018-06-19T07:50:35.035Z,1.90
2018-06-19T07:53:02.446Z,1.60
2018-06-19T07:55:29.932Z,1.80
2018-06-19T07:57:57.334Z,1.40
2018-06-19T08:00:24.848Z,1.12
2018-06-19T08:02:52.304Z,1.30
2018-06-19T08:05:19.745Z,1.40
2018-06-19T08:07:47.162Z,1.60
2018-06-19T08:10:14.577Z,1.42
2018-06-19T08:12:42.019Z,1.30
2018-06-19T08:15:09.474Z,1.30
2018-06-19T08:17:36.869Z,1.37
2018-06-19T08:20:04.322Z,1.55
2018-06-19T08:22:31.763Z,1.32
2018-06-19T08:24:59.197Z,1.32
2018-06-19T08:27:26.643Z,0.90
2018-06-19T08:29:54.071Z,1.05
2018-06-19T08:32:21.510Z,1.45
2018-06-19T08:34:48.950Z,1.10
2018-06-19T08:37:16.386Z,1.27
2018-06-19T08:39:43.805Z,1.12
2018-06-19T08:42:11.228Z,1.17
2018-06-19T08:44:38.664Z,1.00
2018-06-19T08:47:06.098Z,0.85
2018-06-19T08:49:33.633Z,0.90
2018-06-19T08:52:01.077Z,0.80
2018-06-19T08:54:28.499Z,0.80
2018-06-19T08:56:55.943Z,0.82
2018-06-19T08:59:23.381Z,0.80
2018-06-19T09:01:50.801Z,0.70
2018-06-19T09:04:18.273Z,0.50
2018-06-19T09:06:45.690Z,0.72
2018-06-19T09:09:13.171Z,1.10
2018-06-19T09:11:40.607Z,0.95
2018-06-19T09:14:08.054Z,0.72
2018-06-19T09:16:35.657Z,0.50
2018-06-19T09:19:03.118Z,0.70
2018-06-19T09:21:30.560Z,0.60
2018-06-19T09:23:58.094Z,0.78
2018-06-19T09:26:25.655Z,0.70
2018-06-19T09:28:53.100Z,0.60
2018-06-19T09:31:20.528Z,0.88
2018-06-19T09:33:48.004Z,0.98
2018-06-19T09:36:15.488Z,0.88
2018-06-19T09:38:42.935Z,0.60
2018-06-19T09:41:10.912Z,0.82
2018-06-19T09:43:38.370Z,0.90
2018-06-19T09:46:05.814Z,0.65
2018-06-19T09:48:33.351Z,0.65
2018-06-19T09:51:00.786Z,0.60
2018-06-19T09:53:28.190Z,0.80
2018-06-19T09:55:55.634Z,0.78
2018-06-19T09:58:23.252Z,0.80
2018-06-19T10:00:50.652Z,0.80
2018-06-19T10:03:18.138Z,0.70
2018-06-19T10:05:45.620Z,0.70
2018-06-19T10:08:13.031Z,0.60
2018-06-19T10:10:40.510Z,0.57
2018-06-19T10:13:07.934Z,0.47
2018-06-19T10:15:35.462Z,0.80
2018-06-19T10:18:02.898Z,0.30
2018-06-19T10:20:30.327Z,0.60
2018-06-19T10:22:57.774Z,0.57
2018-06-19T10:25:25.218Z,0.40
2018-06-19T10:27:52.681Z,0.50
2018-06-19T10:30:20.079Z,0.37
2018-06-19T10:32:47.508Z,0.23
2018-06-19T10:35:14.949Z,0.30
2018-06-19T10:37:42.358Z,0.28
2018-06-19T10:40:09.839Z,0.33
2018-06-19T10:42:37.239Z,0.23
2018-06-19T10:45:05.104Z,0.33
2018-06-19T10:47:32.541Z,0.20
2018-06-19T10:50:00.011Z,0.30
2018-06-19T10:52:27.443Z,0.35
2018-06-19T10:54:54.878Z,0.55
2018-06-19T10:57:22.298Z,0.95
2018-06-19T10:59:49.726Z,0.30
2018-06-19T11:02:17.222Z,0.40
2018-06-19T11:04:44.655Z,0.53
2018-06-19T11:07:12.171Z,0.40
2018-06-19T11:09:39.583Z,0.62
2018-06-19T11:12:06.999Z,0.50
2018-06-19T11:14:34.419Z,0.50
2018-06-19T11:17:01.890Z,0.82
2018-06-19T11:19:29.317Z,0.50
2018-06-19T11:21:56.783Z,0.72
2018-06-19T11:24:24.206Z,0.40
2018-06-19T11:26:51.659Z,0.30
2018-06-19T11:29:19.122Z,0.40
2018-06-19T11:31:46.554Z,0.23
2018-06-19T11:34:14.010Z,0.40
2018-06-19T11:36:41.455Z,0.40
2018-06-19T11:39:11.361Z,0.10
2018-06-19T11:41:38.838Z,0.47
2018-06-19T11:44:06.301Z,0.17
2018-06-19T11:46:33.903Z,0.30
2018-06-19T11:49:01.349Z,0.20
2018-06-19T11:51:28.793Z,0.42
2018-06-19T11:53:56.246Z,0.30
2018-06-19T11:56:23.692Z,0.30
2018-06-19T11:58:51.838Z,0.30
2018-06-19T12:01:19.284Z,0.42
2018-06-19T12:03:46.990Z,0.45
2018-06-19T12:06:14.446Z,0.20
2018-06-19T12:08:41.877Z,0.30
2018-06-19T12:11:09.302Z,0.30
2018-06-19T12:13:36.772Z,0.20
2018-06-19T12:16:04.235Z,0.45
2018-06-19T12:18:31.667Z,0.30
2018-06-19T12:20:59.357Z,0.17
2018-06-19T12:23:26.881Z,0.20
2018-06-19T12:25:54.337Z,0.40
2018-06-19T12:28:21.846Z,0.40
2018-06-19T12:30:49.287Z,0.20
2018-06-19T12:33:16.794Z,0.53
2018-06-19T12:35:44.271Z,0.30
2018-06-19T12:38:11.928Z,0.40
2018-06-19T12:40:39.368Z,0.30
2018-06-19T12:43:06.931Z,0.30
2018-06-19T12:45:34.355Z,0.30
2018-06-19T12:48:01.796Z,0.20
2018-06-19T12:50:37.338Z,0.30
2018-06-19T12:54:08.108Z,0.10
2018-06-19T12:56:35.476Z,0.35
2018-06-19T12:59:02.922Z,0.10
2018-06-19T13:01:30.342Z,0.10
2018-06-19T13:04:03.541Z,0.30
2018-06-19T13:06:32.793Z,0.30
2018-06-19T13:09:00.235Z,0.50
2018-06-19T13:11:27.654Z,0.30
2018-06-19T13:14:00.802Z,0.33
2018-06-19T13:16:34.004Z,0.30
2018-06-19T13:19:06.961Z,0.20
2018-06-19T13:21:34.768Z,0.40
2018-06-19T13:24:02.163Z,0.30
2018-06-19T13:26:29.940Z,0.30
2018-06-19T13:29:28.235Z,0.17
2018-06-19T13:31:55.682Z,0.28
2018-06-19T13:34:23.106Z,0.20
2018-06-19T13:36:50.662Z,0.40
2018-06-19T13:39:18.509Z,0.30
2018-06-19T13:41:51.670Z,0.20
2018-06-19T13:44:24.722Z,0.20
2018-06-19T13:46:52.297Z,0.30
2018-06-19T13:49:19.711Z,0.20
2018-06-19T13:51:47.178Z,0.20
2018-06-19T13:54:14.738Z,0.30
2018-06-19T13:56:47.850Z,0.28
2018-06-19T13:59:15.280Z,0.20
2018-06-19T14:01:42.781Z,0.30
2018-06-19T14:04:10.118Z,0.23
2018-06-19T14:06:37.587Z,0.40
2018-06-19T14:09:27.833Z,0.47
2018-06-19T14:12:06.727Z,0.30
2018-06-19T14:14:34.212Z,0.30
2018-06-19T14:17:01.679Z,0.30
2018-06-19T14:19:29.239Z,0.40
2018-06-19T14:21:56.974Z,0.50
2018-06-19T14:24:24.473Z,0.40
2018-06-19T14:26:52.091Z,0.40
2018-06-19T14:29:19.504Z,0.53
2018-06-19T14:31:46.957Z,0.55
2018-06-19T14:34:14.357Z,0.93
2018-06-19T14:36:41.795Z,0.70
2018-06-19T14:39:09.252Z,0.68
2018-06-19T14:41:36.717Z,0.30
2018-06-19T14:44:04.221Z,0.40
2018-06-19T14:46:31.854Z,0.40
2018-06-19T14:48:59.559Z,0.25
2018-06-19T14:51:27.248Z,0.25
2018-06-19T14:53:54.726Z,0.20
2018-06-19T14:56:22.170Z,0.30
2018-06-19T14:58:51.744Z,0.40
2018-06-19T15:01:19.166Z,0.62
2018-06-19T15:03:46.730Z,0.30
2018-06-19T15:06:14.163Z,0.30
2018-06-19T15:08:41.602Z,0.40
2018-06-19T15:11:09.046Z,0.40
2018-06-19T15:13:36.459Z,0.40
2018-06-19T15:16:03.899Z,0.40
2018-06-19T15:18:31.489Z,0.30
2018-06-19T15:20:58.828Z,0.33
2018-06-19T15:23:26.523Z,0.47
2018-06-19T15:25:54.206Z,0.42
2018-06-19T15:28:21.857Z,0.75
2018-06-19T15:30:49.336Z,1.90
2018-06-19T15:33:16.928Z,0.50
2018-06-19T15:35:44.342Z,0.68
2018-06-19T15:38:11.875Z,0.60
2018-06-19T15:40:39.335Z,0.37
2018-06-19T15:43:06.868Z,0.42
2018-06-19T15:45:34.438Z,0.50
2018-06-19T15:48:01.883Z,0.40
2018-06-19T15:50:29.330Z,0.60
2018-06-19T15:52:56.748Z,0.50
2018-06-19T15:55:24.352Z,0.53
2018-06-19T15:57:51.866Z,0.55
2018-06-19T16:00:19.401Z,0.62
2018-06-19T16:02:46.850Z,0.40
2018-06-19T16:05:14.336Z,0.40
2018-06-19T16:07:47.598Z,0.47
2018-06-19T16:10:15.023Z,0.37
2018-06-19T16:12:42.563Z,0.72
2018-06-19T16:15:10.534Z,0.82
2018-06-19T16:17:38.008Z,0.62
2018-06-19T16:20:05.491Z,0.75
2018-06-19T16:22:32.926Z,0.50
2018-06-19T16:25:00.439Z,0.55
2018-06-19T16:27:27.901Z,1.50
2018-06-19T16:29:55.362Z,1.45
2018-06-19T16:32:22.786Z,1.07
2018-06-19T16:34:50.186Z,0.70
2018-06-19T16:37:17.853Z,0.57
2018-06-19T16:39:45.653Z,0.50
2018-06-19T16:42:13.456Z,0.50
2018-06-19T16:44:40.930Z,0.53
2018-06-19T16:47:09.696Z,0.47
2018-06-19T16:49:37.214Z,0.90
2018-06-19T16:52:04.738Z,0.40
2018-06-19T16:54:32.523Z,0.62
2018-06-19T16:57:00.265Z,0.60
2018-06-19T16:59:28.227Z,0.57
2018-06-19T17:01:55.903Z,0.53
2018-06-19T17:04:23.345Z,0.72
2018-06-19T17:06:53.636Z,0.90
2018-06-19T17:09:21.711Z,0.98
2018-06-19T17:11:49.357Z,0.82
2018-06-19T17:14:16.930Z,0.90
2018-06-19T17:16:44.345Z,0.90
2018-06-19T17:19:11.786Z,0.78
2018-06-19T17:21:39.491Z,0.95
2018-06-19T17:24:07.087Z,0.80
2018-06-19T17:26:35.152Z,0.95
2018-06-19T17:29:03.561Z,0.60
2018-06-19T17:31:31.125Z,0.90
2018-06-19T17:33:58.822Z,0.80
2018-06-19T17:36:26.646Z,0.70
2018-06-19T17:38:54.183Z,0.80
2018-06-19T17:41:21.703Z,0.90
2018-06-19T17:43:49.376Z,0.98
2018-06-19T17:46:16.838Z,0.60
2018-06-19T17:48:44.271Z,1.00
2018-06-19T17:51:11.818Z,0.75
2018-06-19T17:53:39.486Z,0.85
2018-06-19T17:56:07.786Z,1.17
2018-06-19T17:58:35.269Z,1.15
2018-06-19T18:01:02.770Z,0.90
2018-06-19T18:03:30.655Z,1.20
2018-06-19T18:05:58.116Z,1.12
2018-06-19T18:08:26.207Z,1.42
2018-06-19T18:10:53.752Z,1.25
2018-06-19T18:13:21.194Z,1.35
2018-06-19T18:15:48.618Z,1.30
2018-06-19T18:18:16.066Z,1.12
2018-06-19T18:20:43.490Z,1.07
2018-06-19T18:23:10.930Z,0.70
2018-06-19T18:25:38.374Z,1.10
2018-06-19T18:28:05.902Z,0.98
2018-06-19T18:30:33.483Z,1.00
2018-06-19T18:33:00.893Z,1.00
2018-06-19T18:35:28.320Z,1.10
2018-06-19T18:37:55.807Z,1.32
2018-06-19T18:40:23.250Z,0.82
2018-06-19T18:42:50.719Z,1.32
2018-06-19T18:45:18.542Z,1.20
2018-06-19T18:47:46.366Z,1.20
2018-06-19T18:50:14.004Z,0.70
2018-06-19T18:52:41.434Z,1.22
2018-06-19T18:55:09.212Z,0.98
2018-06-19T18:57:37.115Z,0.90
2018-06-19T19:00:04.963Z,1.20
2018-06-19T19:02:32.391Z,1.35
2018-06-19T19:04:59.847Z,0.90
2018-06-19T19:07:27.575Z,1.22
2018-06-19T19:10:00.894Z,1.17
2018-06-19T19:12:28.765Z,1.07
2018-06-19T19:15:01.982Z,1.35
2018-06-19T19:17:35.195Z,1.40
2018-06-19T19:20:02.996Z,1.00
2018-06-19T19:22:30.578Z,1.22
2018-06-19T19:24:58.120Z,1.57
2018-06-19T19:27:31.406Z,1.37
2018-06-19T19:29:58.911Z,1.22
2018-06-19T19:32:26.487Z,1.82
2018-06-19T19:34:53.917Z,1.07
2018-06-19T19:37:27.199Z,1.60
2018-06-19T19:39:54.751Z,1.45
2018-06-19T19:42:22.379Z,1.98
2018-06-19T19:44:49.832Z,1.00
2018-06-19T19:47:23.016Z,1.40
2018-06-19T19:49:50.694Z,1.30
2018-06-19T19:52:18.540Z,1.40
2018-06-19T19:54:46.028Z,1.27
2018-06-19T19:57:18.940Z,1.72
2018-06-19T19:59:46.428Z,1.90
2018-06-19T20:02:13.836Z,1.25
2018-06-19T20:04:41.478Z,1.65
2018-06-19T20:07:08.955Z,1.10
2018-06-19T20:09:37.217Z,1.47
2018-06-19T20:12:04.778Z,1.47
2018-06-19T20:14:32.210Z,1.47
2018-06-19T20:16:59.844Z,1.67
2018-06-19T20:19:27.294Z,1.47
2018-06-19T20:21:54.751Z,1.32
2018-06-19T20:24:22.147Z,1.60
2018-06-19T20:26:51.002Z,1.30
2018-06-19T20:29:19.095Z,1.85
2018-06-19T20:31:46.585Z,1.50
2018-06-19T20:34:14.695Z,1.70
2018-06-19T20:36:42.169Z,1.60
2018-06-19T20:39:10.062Z,1.60
2018-06-19T20:41:40.517Z,1.35
2018-06-19T20:44:07.981Z,1.52
2018-06-19T20:46:36.217Z,1.65
2018-06-19T20:49:03.702Z,2.10
2018-06-19T20:51:31.113Z,1.70
2018-06-19T20:53:58.563Z,2.08
2018-06-19T20:56:26.084Z,1.82
2018-06-19T20:58:53.530Z,1.82
2018-06-19T21:01:20.971Z,1.90
2018-06-19T21:03:48.395Z,1.60
2018-06-19T21:06:15.870Z,1.70
2018-06-19T21:08:43.316Z,2.00
2018-06-19T21:11:12.326Z,2.42
2018-06-19T21:13:39.814Z,1.75
2018-06-19T21:16:08.099Z,2.25
2018-06-19T21:18:35.966Z,1.90
2018-06-19T21:21:03.593Z,1.75
2018-06-19T21:23:31.172Z,1.52
2018-06-19T21:25:58.897Z,1.67
2018-06-19T21:28:26.546Z,1.67
2018-06-19T21:30:54.022Z,1.57
2018-06-19T21:33:21.515Z,2.17
2018-06-19T21:35:48.907Z,1.62
2018-06-19T21:38:16.325Z,1.50
2018-06-19T21:40:44.248Z,1.72
2018-06-19T21:43:11.710Z,1.90
2018-06-19T21:45:39.240Z,1.40
2018-06-19T21:48:06.702Z,1.37
2018-06-19T21:50:34.137Z,1.90
2018-06-19T21:53:01.989Z,1.67
2018-06-19T21:55:29.490Z,1.62
2018-06-19T21:57:57.123Z,1.87
2018-06-19T22:00:25.635Z,1.87
2018-06-19T22:02:53.087Z,1.80
2018-06-19T22:05:21.132Z,1.95
2018-06-19T22:07:48.774Z,1.77
2018-06-19T22:10:16.255Z,1.70
2018-06-19T22:12:43.870Z,1.50
2018-06-19T22:15:11.325Z,1.87
2018-06-19T22:17:38.739Z,2.20
2018-06-19T22:20:06.454Z,2.10
2018-06-19T22:22:34.365Z,1.75
2018-06-19T22:25:02.456Z,1.62
2018-06-19T22:27:30.177Z,2.10
2018-06-19T22:29:57.914Z,1.98
2018-06-19T22:32:26.571Z,2.30
2018-06-19T22:34:54.523Z,1.98
2018-06-19T22:37:22.441Z,2.00
2018-06-19T22:39:50.057Z,2.05
2018-06-19T22:42:17.482Z,2.37
2018-06-19T22:44:44.897Z,1.92
2018-06-19T22:47:13.048Z,2.47
2018-06-19T22:49:40.850Z,2.15
2018-06-19T22:52:09.145Z,2.65
2018-06-19T22:54:36.571Z,2.50
2018-06-19T22:57:04.465Z,2.42
2018-06-19T22:59:32.130Z,2.37
2018-06-19T23:01:59.848Z,2.85
2018-06-19T23:04:27.689Z,2.90
2018-06-19T23:06:55.391Z,2.92
2018-06-19T23:09:22.842Z,2.33
2018-06-19T23:11:50.328Z,2.20
2018-06-19T23:14:17.961Z,2.62
2018-06-19T23:16:45.495Z,2.37
2018-06-19T23:19:13.306Z,2.58
2018-06-19T23:21:40.778Z,2.33
2018-06-19T23:24:08.266Z,2.33
2018-06-19T23:26:36.900Z,2.40
2018-06-19T23:29:04.430Z,2.05
2018-06-19T23:31:31.882Z,2.55
2018-06-19T23:33:59.913Z,2.70
2018-06-19T23:36:27.367Z,3.00
2018-06-19T23:38:54.818Z,2.80
2018-06-19T23:41:22.255Z,2.77
2018-06-19T23:43:49.690Z,2.80
2018-06-19T23:46:17.111Z,2.87
2018-06-19T23:48:44.551Z,2.30
2018-06-19T23:51:12.299Z,2.40
2018-06-19T23:53:40.033Z,3.02
2018-06-19T23:56:07.810Z,2.92
2018-06-19T23:58:35.274Z,3.12
